createdAt,value
2018-12-31T00:00:45.046Z,61.30
2018-12-31T00:03:14.092Z,60.60
2018-12-31T00:05:42.908Z,59.90
2018-12-31T00:08:11.716Z,59.70
2018-12-31T00:10:40.537Z,59.20
2018-12-31T00:13:09.424Z,58.80
2018-12-31T00:15:38.407Z,58.80
2018-12-31T00:18:07.388Z,59.30
2018-12-31T00:20:36.251Z,59.60
2018-12-31T00:23:05.125Z,60.20
2018-12-31T00:25:34.008Z,60.40
2018-12-31T00:28:03.047Z,61.30
2018-12-31T00:30:31.826Z,61.30
2018-12-31T00:33:00.740Z,61.10
2018-12-31T00:35:29.637Z,60.10
2018-12-31T00:37:58.435Z,59.20
2018-12-31T00:40:27.313Z,58.40
2018-12-31T00:42:59.114Z,58.40
2018-12-31T00:45:26.793Z,58.60
2018-12-31T00:47:55.597Z,58.10
2018-12-31T00:50:24.412Z,58.50
2018-12-31T00:52:53.312Z,57.70
2018-12-31T00:55:22.280Z,57.60
2018-12-31T00:57:51.104Z,57.30
2018-12-31T01:00:20.049Z,57.00
2018-12-31T01:02:48.860Z,57.10
2018-12-31T01:05:17.765Z,56.90
2018-12-31T01:07:46.548Z,57.40
2018-12-31T01:10:15.356Z,57.30
2018-12-31T01:12:44.344Z,58.20
2018-12-31T01:15:13.192Z,58.30
2018-12-31T01:17:42.176Z,58.00
2018-12-31T01:20:10.974Z,58.00
2018-12-31T01:22:39.752Z,58.40
2018-12-31T01:25:08.651Z,57.90
2018-12-31T01:27:37.560Z,58.50
2018-12-31T01:30:06.924Z,58.70
2018-12-31T01:32:35.775Z,58.60
2018-12-31T01:35:04.979Z,58.60
2018-12-31T01:37:33.848Z,58.60
2018-12-31T01:40:02.709Z,58.10
2018-12-31T01:42:31.717Z,57.70
2018-12-31T01:45:00.501Z,57.30
2018-12-31T01:47:29.397Z,57.40
2018-12-31T01:49:58.288Z,57.30
2018-12-31T01:52:27.048Z,57.60
2018-12-31T01:54:55.857Z,57.30
2018-12-31T01:57:24.716Z,56.90
2018-12-31T01:59:53.482Z,57.40
2018-12-31T02:02:22.405Z,57.90
2018-12-31T02:04:51.308Z,58.00
2018-12-31T02:07:20.084Z,58.70
2018-12-31T02:09:48.872Z,58.70
2018-12-31T02:12:17.776Z,58.30
2018-12-31T02:14:46.542Z,57.80
2018-12-31T02:17:15.352Z,58.10
2018-12-31T02:19:44.144Z,58.80
2018-12-31T02:22:13.019Z,58.10
2018-12-31T02:24:41.816Z,58.20
2018-12-31T02:27:10.712Z,57.60
2018-12-31T02:29:39.696Z,57.70
2018-12-31T02:32:08.497Z,58.00
2018-12-31T02:34:37.381Z,58.10
2018-12-31T02:37:06.362Z,57.40
2018-12-31T02:39:35.154Z,57.00
2018-12-31T02:42:04.054Z,56.90
2018-12-31T02:44:33.228Z,56.90
2018-12-31T02:47:02.053Z,57.10
2018-12-31T02:49:30.860Z,57.40
2018-12-31T02:51:59.639Z,57.00
2018-12-31T02:54:28.437Z,57.30
2018-12-31T02:56:57.263Z,57.30
2018-12-31T02:59:26.058Z,57.60
2018-12-31T03:01:54.816Z,58.00
2018-12-31T03:04:23.693Z,58.60
2018-12-31T03:06:52.596Z,58.80
2018-12-31T03:09:21.528Z,58.80
2018-12-31T03:11:50.426Z,58.80
2018-12-31T03:14:19.340Z,59.40
2018-12-31T03:16:48.337Z,59.70
2018-12-31T03:19:17.208Z,59.50
2018-12-31T03:21:46.286Z,58.80
2018-12-31T03:24:15.071Z,58.60
2018-12-31T03:26:43.867Z,59.40
2018-12-31T03:29:12.713Z,59.50
2018-12-31T03:31:41.622Z,60.10
2018-12-31T03:34:10.397Z,59.70
2018-12-31T03:36:39.259Z,59.00
2018-12-31T03:39:08.224Z,58.90
2018-12-31T03:41:37.193Z,58.50
2018-12-31T03:44:06.149Z,58.00
2018-12-31T03:46:35.044Z,57.50
2018-12-31T03:49:03.951Z,58.10
2018-12-31T03:51:32.897Z,58.40
2018-12-31T03:54:01.789Z,58.30
2018-12-31T03:56:30.564Z,58.40
2018-12-31T03:58:59.438Z,58.20
2018-12-31T04:01:28.320Z,58.20
2018-12-31T04:03:57.420Z,59.10
2018-12-31T04:06:26.412Z,58.80
2018-12-31T04:08:55.209Z,58.70
2018-12-31T04:11:24.276Z,58.90
2018-12-31T04:13:53.178Z,58.90
2018-12-31T04:16:22.145Z,58.10
2018-12-31T04:18:50.964Z,58.20
2018-12-31T04:21:19.854Z,58.00
2018-12-31T04:23:48.632Z,58.10
2018-12-31T04:26:17.528Z,58.00
2018-12-31T04:28:46.416Z,57.60
2018-12-31T04:31:15.409Z,57.80
2018-12-31T04:33:44.179Z,57.70
2018-12-31T04:36:13.089Z,57.70
2018-12-31T04:38:42.001Z,57.30
2018-12-31T04:41:10.884Z,57.80
2018-12-31T04:43:39.970Z,58.10
2018-12-31T04:46:08.869Z,58.40
2018-12-31T04:48:37.633Z,58.40
2018-12-31T04:51:06.557Z,58.10
2018-12-31T04:53:35.425Z,58.00
2018-12-31T04:56:04.278Z,57.60
2018-12-31T04:58:33.197Z,57.90
2018-12-31T05:01:02.147Z,58.10
2018-12-31T05:03:31.008Z,57.90
2018-12-31T05:05:59.808Z,58.60
2018-12-31T05:08:28.725Z,58.70
2018-12-31T05:10:57.559Z,58.60
2018-12-31T05:13:26.384Z,58.00
2018-12-31T05:15:55.165Z,58.20
2018-12-31T05:18:23.952Z,58.80
2018-12-31T05:20:52.844Z,58.60
2018-12-31T05:23:21.731Z,58.50
2018-12-31T05:25:50.696Z,59.20
2018-12-31T05:28:19.484Z,58.70
2018-12-31T05:30:48.360Z,58.80
2018-12-31T05:33:17.358Z,59.40
2018-12-31T05:35:46.244Z,59.10
2018-12-31T05:38:15.088Z,58.80
2018-12-31T05:40:43.864Z,58.90
2018-12-31T05:43:12.644Z,58.50
2018-12-31T05:45:41.523Z,58.60
2018-12-31T05:48:10.352Z,58.70
2018-12-31T05:50:39.184Z,59.10
2018-12-31T05:53:08.023Z,59.30
2018-12-31T05:55:36.804Z,59.10
2018-12-31T05:58:05.684Z,58.80
2018-12-31T06:00:35.812Z,58.80
2018-12-31T06:03:04.764Z,57.90
2018-12-31T06:05:33.661Z,57.70
2018-12-31T06:08:02.608Z,58.00
2018-12-31T06:10:31.549Z,58.00
2018-12-31T06:13:00.334Z,58.10
2018-12-31T06:15:29.440Z,57.70
2018-12-31T06:17:58.436Z,58.30
2018-12-31T06:20:27.269Z,57.70
2018-12-31T06:22:56.062Z,57.80
2018-12-31T06:25:25.004Z,58.00
2018-12-31T06:27:53.830Z,58.30
2018-12-31T06:30:22.648Z,57.70
2018-12-31T06:32:51.489Z,57.80
2018-12-31T06:35:20.341Z,58.00
2018-12-31T06:37:49.104Z,57.70
2018-12-31T06:40:17.984Z,57.70
2018-12-31T06:42:46.772Z,57.70
2018-12-31T06:45:15.760Z,57.70
2018-12-31T06:47:44.569Z,57.70
2018-12-31T06:50:13.430Z,57.30
2018-12-31T06:52:42.250Z,57.50
2018-12-31T06:55:11.053Z,57.70
2018-12-31T06:57:39.896Z,57.90
2018-12-31T07:00:08.944Z,57.70
2018-12-31T07:02:37.962Z,58.20
2018-12-31T07:05:06.872Z,57.70
2018-12-31T07:07:35.812Z,57.70
2018-12-31T07:10:05.536Z,57.60
2018-12-31T07:12:34.420Z,57.70
2018-12-31T07:15:03.260Z,57.30
2018-12-31T07:17:32.161Z,57.40
2018-12-31T07:20:01.098Z,57.40
2018-12-31T07:22:29.939Z,57.50
2018-12-31T07:24:58.664Z,57.90
2018-12-31T07:27:27.734Z,58.50
2018-12-31T07:29:56.513Z,58.50
2018-12-31T07:32:25.320Z,58.50
2018-12-31T07:34:54.200Z,58.40
2018-12-31T07:37:23.120Z,58.20
2018-12-31T07:39:52.108Z,58.00
2018-12-31T07:42:20.872Z,58.00
2018-12-31T07:44:49.652Z,58.10
2018-12-31T07:47:18.484Z,58.20
2018-12-31T07:49:47.292Z,58.50
2018-12-31T07:52:16.156Z,58.10
2018-12-31T07:54:44.916Z,58.30
2018-12-31T07:57:14.074Z,58.40
2018-12-31T07:59:43.143Z,58.30
2018-12-31T08:02:12.065Z,58.50
2018-12-31T08:04:41.058Z,58.80
2018-12-31T08:07:09.874Z,58.60
2018-12-31T08:09:38.778Z,58.80
2018-12-31T08:12:07.560Z,59.20
2018-12-31T08:14:36.376Z,59.00
2018-12-31T08:17:05.324Z,58.90
2018-12-31T08:19:34.216Z,58.90
2018-12-31T08:22:03.404Z,59.00
2018-12-31T08:24:32.188Z,59.30
2018-12-31T08:27:01.104Z,59.80
2018-12-31T08:29:29.865Z,59.80
2018-12-31T08:31:58.700Z,59.50
2018-12-31T08:34:27.596Z,59.20
2018-12-31T08:36:56.560Z,59.50
2018-12-31T08:39:25.470Z,59.50
2018-12-31T08:41:54.344Z,59.10
2018-12-31T08:44:23.163Z,59.40
2018-12-31T08:46:52.061Z,59.60
2018-12-31T08:49:20.872Z,59.70
2018-12-31T08:51:49.747Z,60.20
2018-12-31T08:54:18.567Z,59.90
2018-12-31T08:56:47.536Z,59.90
2018-12-31T08:59:16.328Z,59.70
2018-12-31T09:01:45.260Z,60.40
2018-12-31T09:04:14.044Z,60.80
2018-12-31T09:06:42.973Z,60.60
2018-12-31T09:09:11.961Z,60.70
2018-12-31T09:11:40.740Z,60.50
2018-12-31T09:14:09.551Z,60.40
2018-12-31T09:16:38.622Z,60.90
2018-12-31T09:19:08.108Z,61.00
2018-12-31T09:21:36.900Z,61.00
2018-12-31T09:24:05.777Z,61.80
2018-12-31T09:26:34.637Z,62.40
2018-12-31T09:29:03.512Z,62.40
2018-12-31T09:31:32.369Z,62.80
2018-12-31T09:34:01.148Z,64.70
2018-12-31T09:36:30.031Z,64.70
2018-12-31T09:38:58.938Z,64.90
2018-12-31T09:41:27.821Z,65.30
2018-12-31T09:43:56.608Z,65.30
2018-12-31T09:46:25.380Z,64.60
2018-12-31T09:48:54.297Z,64.30
2018-12-31T09:51:23.208Z,64.00
2018-12-31T09:53:52.044Z,63.70
2018-12-31T09:56:20.894Z,63.40
2018-12-31T09:58:49.768Z,62.90
2018-12-31T10:01:18.656Z,62.60
2018-12-31T10:03:47.692Z,62.00
2018-12-31T10:06:16.804Z,62.50
2018-12-31T10:08:49.428Z,62.70
2018-12-31T10:11:16.222Z,62.80
2018-12-31T10:13:45.050Z,62.80
2018-12-31T10:16:13.860Z,62.80
2018-12-31T10:18:42.632Z,62.80
2018-12-31T10:21:11.436Z,62.10
2018-12-31T10:23:40.196Z,62.20
2018-12-31T10:26:09.022Z,62.70
2018-12-31T10:28:37.884Z,62.90
2018-12-31T10:31:06.750Z,62.90
2018-12-31T10:33:35.628Z,62.90
2018-12-31T10:36:04.484Z,62.90
2018-12-31T10:38:33.284Z,63.00
2018-12-31T10:41:02.645Z,62.90
2018-12-31T10:43:31.512Z,63.00
2018-12-31T10:46:00.292Z,63.00
2018-12-31T10:48:29.105Z,62.90
2018-12-31T10:50:57.886Z,63.00
2018-12-31T10:53:26.774Z,61.50
2018-12-31T10:55:55.664Z,60.60
2018-12-31T10:58:24.557Z,60.90
2018-12-31T11:00:53.476Z,60.30
2018-12-31T11:03:22.301Z,60.10
2018-12-31T11:05:51.180Z,60.70
2018-12-31T11:08:20.049Z,60.50
2018-12-31T11:10:49.081Z,60.50
2018-12-31T11:13:17.876Z,60.50
2018-12-31T11:15:46.636Z,60.40
2018-12-31T11:18:15.904Z,60.90
2018-12-31T11:20:44.696Z,60.70
2018-12-31T11:23:13.589Z,60.80
2018-12-31T11:25:42.488Z,60.70
2018-12-31T11:28:11.357Z,60.00
2018-12-31T11:30:40.269Z,59.80
2018-12-31T11:33:09.052Z,60.40
2018-12-31T11:35:37.948Z,59.70
2018-12-31T11:38:07.129Z,60.10
2018-12-31T11:40:35.912Z,60.30
2018-12-31T11:43:05.828Z,59.00
2018-12-31T11:45:34.641Z,60.20
2018-12-31T11:48:03.484Z,60.90
2018-12-31T11:50:32.709Z,60.70
2018-12-31T11:53:01.528Z,60.30
2018-12-31T11:55:30.680Z,60.50
2018-12-31T11:57:59.553Z,61.80
2018-12-31T12:00:28.364Z,62.10
2018-12-31T12:02:57.488Z,62.10
2018-12-31T12:05:26.273Z,61.60
2018-12-31T12:07:55.279Z,61.60
2018-12-31T12:10:24.184Z,61.50
2018-12-31T12:12:53.112Z,61.40
2018-12-31T12:15:21.900Z,61.40
2018-12-31T12:17:50.776Z,61.90
2018-12-31T12:20:19.677Z,62.70
2018-12-31T12:22:48.476Z,63.20
2018-12-31T12:25:17.356Z,63.10
2018-12-31T12:27:46.156Z,59.60
2018-12-31T12:30:14.965Z,57.90
2018-12-31T12:32:43.873Z,57.70
2018-12-31T12:35:12.752Z,54.80
2018-12-31T12:37:48.296Z,50.90
2018-12-31T12:40:12.165Z,47.60
2018-12-31T12:42:41.818Z,47.20
2018-12-31T12:45:10.732Z,46.40
2018-12-31T12:47:39.638Z,48.50
2018-12-31T12:50:08.484Z,47.90
2018-12-31T12:52:37.345Z,47.20
2018-12-31T12:55:06.320Z,46.50
2018-12-31T12:57:35.216Z,47.80
2018-12-31T13:00:04.621Z,46.70
2018-12-31T13:02:33.560Z,46.80
2018-12-31T13:05:03.876Z,47.20
2018-12-31T13:07:32.998Z,46.80
2018-12-31T13:10:02.003Z,45.70
2018-12-31T13:12:30.861Z,47.80
2018-12-31T13:14:59.864Z,49.00
2018-12-31T13:17:28.711Z,49.20
2018-12-31T13:19:57.631Z,49.50
2018-12-31T13:22:26.738Z,49.70
2018-12-31T13:24:55.670Z,48.70
2018-12-31T13:27:24.541Z,49.00
2018-12-31T13:29:53.448Z,49.30
2018-12-31T13:32:22.244Z,48.40
2018-12-31T13:34:51.036Z,46.90
2018-12-31T13:37:19.916Z,48.80
2018-12-31T13:39:48.713Z,47.70
2018-12-31T13:42:17.525Z,46.60
2018-12-31T13:44:46.325Z,46.60
2018-12-31T13:47:15.101Z,46.60
2018-12-31T13:49:44.021Z,45.50
2018-12-31T13:52:12.976Z,46.10
2018-12-31T13:54:41.862Z,47.00
2018-12-31T13:57:10.784Z,46.70
2018-12-31T13:59:39.653Z,47.40
2018-12-31T14:02:08.432Z,48.30
2018-12-31T14:04:37.440Z,48.60
2018-12-31T14:07:06.207Z,48.80
2018-12-31T14:09:35.172Z,49.50
2018-12-31T14:12:03.955Z,48.20
2018-12-31T14:14:33.052Z,47.50
2018-12-31T14:17:01.920Z,45.40
2018-12-31T14:19:30.736Z,43.40
2018-12-31T14:21:59.644Z,43.40
2018-12-31T14:24:28.493Z,43.50
2018-12-31T14:27:00.603Z,41.90
2018-12-31T14:29:28.176Z,42.90
2018-12-31T14:31:57.120Z,44.20
2018-12-31T14:34:26.789Z,45.50
2018-12-31T14:36:55.690Z,45.10
2018-12-31T14:39:24.567Z,45.40
2018-12-31T14:41:53.548Z,44.30
2018-12-31T14:44:22.731Z,44.10
2018-12-31T14:46:52.192Z,44.20
2018-12-31T14:49:20.990Z,46.10
2018-12-31T14:51:49.881Z,48.00
2018-12-31T14:54:18.756Z,49.10
2018-12-31T14:56:47.972Z,50.10
2018-12-31T14:59:17.182Z,50.50
2018-12-31T15:01:46.133Z,50.90
2018-12-31T15:04:15.172Z,50.10
2018-12-31T15:06:44.052Z,50.50
2018-12-31T15:09:13.040Z,48.90
2018-12-31T15:11:42.304Z,50.60
2018-12-31T15:14:11.144Z,48.40
2018-12-31T15:16:40.081Z,47.00
2018-12-31T15:19:08.920Z,46.90
2018-12-31T15:21:37.964Z,46.30
2018-12-31T15:24:07.040Z,47.60
2018-12-31T15:26:35.963Z,47.60
2018-12-31T15:29:04.944Z,48.00
2018-12-31T15:31:33.856Z,49.00
2018-12-31T15:34:02.829Z,49.60
2018-12-31T15:36:32.192Z,49.90
2018-12-31T15:39:01.116Z,50.50
2018-12-31T15:41:30.021Z,50.50
2018-12-31T15:43:58.921Z,51.00
2018-12-31T15:46:27.700Z,50.60
2018-12-31T15:48:56.527Z,50.80
2018-12-31T15:51:25.413Z,50.50
2018-12-31T15:53:54.577Z,50.40
2018-12-31T15:56:23.485Z,50.50
2018-12-31T15:58:52.649Z,50.10
2018-12-31T16:01:21.583Z,50.60
2018-12-31T16:03:50.378Z,51.30
2018-12-31T16:06:19.171Z,52.10
2018-12-31T16:08:48.000Z,52.90
2018-12-31T16:11:16.824Z,52.80
2018-12-31T16:13:45.609Z,53.10
2018-12-31T16:16:14.692Z,53.90
2018-12-31T16:18:43.732Z,54.40
2018-12-31T16:21:12.502Z,55.30
2018-12-31T16:23:41.431Z,55.40
2018-12-31T16:26:10.260Z,55.60
2018-12-31T16:28:39.078Z,55.80
2018-12-31T16:31:08.189Z,55.70
2018-12-31T16:33:37.021Z,55.80
2018-12-31T16:36:05.904Z,56.10
2018-12-31T16:38:34.724Z,56.20
2018-12-31T16:41:03.780Z,56.70
2018-12-31T16:43:32.597Z,57.00
2018-12-31T16:46:01.472Z,58.30
2018-12-31T16:48:30.372Z,58.50
2018-12-31T16:50:59.264Z,58.80
2018-12-31T16:53:28.168Z,59.10
2018-12-31T16:55:56.999Z,59.00
2018-12-31T16:58:25.951Z,58.90
2018-12-31T17:00:54.740Z,59.00
2018-12-31T17:03:23.977Z,59.00
2018-12-31T17:05:53.088Z,59.80
2018-12-31T17:08:22.233Z,60.00
2018-12-31T17:10:51.224Z,60.40
2018-12-31T17:13:20.328Z,60.40
2018-12-31T17:15:49.511Z,59.60
2018-12-31T17:18:18.740Z,59.20
2018-12-31T17:20:47.652Z,59.90
2018-12-31T17:23:16.491Z,60.10
2018-12-31T17:25:45.356Z,60.30
2018-12-31T17:28:14.322Z,60.60
2018-12-31T17:30:43.520Z,60.30
2018-12-31T17:33:12.309Z,60.90
2018-12-31T17:35:41.184Z,61.20
2018-12-31T17:38:10.116Z,61.90
2018-12-31T17:40:39.109Z,61.70
2018-12-31T17:43:08.009Z,60.40
2018-12-31T17:45:36.876Z,58.80
2018-12-31T17:48:06.055Z,58.80
2018-12-31T17:50:34.932Z,57.90
2018-12-31T17:53:03.889Z,57.00
2018-12-31T17:55:32.889Z,56.60
2018-12-31T17:58:01.849Z,56.10
2018-12-31T18:00:30.728Z,55.60
2018-12-31T18:02:59.516Z,55.50
2018-12-31T18:05:28.824Z,55.90
2018-12-31T18:07:57.700Z,57.60
2018-12-31T18:10:26.608Z,58.20
2018-12-31T18:12:55.515Z,58.40
2018-12-31T18:15:24.612Z,58.60
2018-12-31T18:17:53.772Z,58.60
2018-12-31T18:20:22.572Z,57.90
2018-12-31T18:22:51.444Z,57.50
2018-12-31T18:25:20.280Z,57.70
2018-12-31T18:27:49.108Z,58.90
2018-12-31T18:30:17.988Z,59.90
2018-12-31T18:32:46.901Z,60.20
2018-12-31T18:35:15.860Z,60.80
2018-12-31T18:37:44.755Z,60.60
2018-12-31T18:40:13.653Z,60.20
2018-12-31T18:42:42.472Z,60.00
2018-12-31T18:45:11.555Z,60.50
2018-12-31T18:47:40.533Z,59.10
2018-12-31T18:50:09.596Z,58.90
2018-12-31T18:52:38.348Z,58.50
2018-12-31T18:55:07.332Z,58.50
2018-12-31T18:57:36.137Z,59.30
2018-12-31T19:00:06.098Z,60.30
2018-12-31T19:02:35.012Z,60.30
2018-12-31T19:05:04.079Z,60.70
2018-12-31T19:07:32.966Z,60.50
2018-12-31T19:10:01.891Z,60.30
2018-12-31T19:12:31.162Z,60.50
2018-12-31T19:15:00.057Z,60.70
2018-12-31T19:17:28.996Z,60.70
2018-12-31T19:19:58.009Z,61.40
2018-12-31T19:22:26.781Z,61.50
2018-12-31T19:24:55.560Z,62.50
2018-12-31T19:27:24.423Z,62.60
2018-12-31T19:29:53.280Z,61.80
2018-12-31T19:32:22.123Z,61.40
2018-12-31T19:34:50.900Z,61.40
2018-12-31T19:37:19.878Z,61.30
2018-12-31T19:39:48.686Z,61.80
2018-12-31T19:42:17.608Z,61.40
2018-12-31T19:44:46.484Z,62.40
2018-12-31T19:47:15.365Z,62.90
2018-12-31T19:49:44.198Z,63.40
2018-12-31T19:52:13.847Z,63.60
2018-12-31T19:54:42.856Z,62.80
2018-12-31T19:57:11.735Z,63.30
2018-12-31T19:59:40.611Z,63.40
2018-12-31T20:02:09.466Z,63.20
2018-12-31T20:04:38.412Z,63.20
2018-12-31T20:07:07.381Z,66.00
2018-12-31T20:09:36.185Z,64.90
2018-12-31T20:12:05.069Z,62.30
2018-12-31T20:14:33.956Z,62.40
2018-12-31T20:17:03.332Z,62.30
2018-12-31T20:19:32.136Z,63.10
2018-12-31T20:22:00.968Z,63.50
2018-12-31T20:24:29.928Z,62.30
2018-12-31T20:26:58.832Z,62.40
2018-12-31T20:29:27.757Z,62.40
2018-12-31T20:31:56.573Z,62.30
2018-12-31T20:34:25.479Z,62.30
2018-12-31T20:36:54.339Z,63.10
2018-12-31T20:39:23.294Z,63.60
2018-12-31T20:41:52.192Z,63.50
2018-12-31T20:44:21.702Z,63.30
2018-12-31T20:46:50.657Z,63.80
2018-12-31T20:49:19.613Z,64.10
2018-12-31T20:51:48.392Z,64.30
2018-12-31T20:54:17.332Z,63.80
2018-12-31T20:56:46.250Z,63.40
2018-12-31T20:59:15.056Z,62.80
2018-12-31T21:01:43.962Z,61.40
2018-12-31T21:04:12.848Z,60.00
2018-12-31T21:06:41.760Z,60.50
2018-12-31T21:09:10.792Z,61.40
2018-12-31T21:11:39.881Z,61.30
2018-12-31T21:14:08.808Z,62.40
2018-12-31T21:16:37.845Z,61.40
2018-12-31T21:19:06.763Z,62.30
2018-12-31T21:21:35.581Z,61.90
2018-12-31T21:24:04.858Z,60.60
2018-12-31T21:26:33.704Z,59.90
2018-12-31T21:29:02.585Z,61.00
2018-12-31T21:31:31.496Z,61.60
2018-12-31T21:34:01.792Z,62.30
2018-12-31T21:36:30.688Z,62.20
2018-12-31T21:38:59.477Z,62.70
2018-12-31T21:41:28.273Z,62.20
2018-12-31T21:43:57.172Z,65.10
2018-12-31T21:46:26.087Z,65.80
2018-12-31T21:48:54.980Z,67.20
2018-12-31T21:51:23.873Z,64.90
2018-12-31T21:53:52.788Z,61.70
2018-12-31T21:56:21.652Z,60.80
2018-12-31T21:58:51.886Z,61.30
2018-12-31T22:01:20.937Z,61.30
2018-12-31T22:03:50.000Z,62.20
2018-12-31T22:06:18.996Z,62.30
2018-12-31T22:08:48.105Z,62.30
2018-12-31T22:11:16.961Z,62.30
2018-12-31T22:13:45.912Z,62.30
2018-12-31T22:16:15.160Z,62.30
2018-12-31T22:18:43.964Z,62.30
2018-12-31T22:21:12.961Z,63.00
2018-12-31T22:23:41.776Z,61.90
2018-12-31T22:26:10.669Z,61.30
2018-12-31T22:28:39.476Z,60.90
2018-12-31T22:31:08.361Z,60.50
2018-12-31T22:33:37.161Z,61.10
2018-12-31T22:36:08.656Z,60.60
2018-12-31T22:38:37.468Z,60.30
2018-12-31T22:41:06.340Z,59.40
2018-12-31T22:43:35.228Z,59.70
2018-12-31T22:46:04.071Z,60.00
2018-12-31T22:48:32.981Z,60.40
2018-12-31T22:51:01.959Z,60.80
2018-12-31T22:53:30.836Z,61.50
2018-12-31T22:55:59.648Z,62.10
2018-12-31T22:58:28.464Z,62.20
2018-12-31T23:00:57.716Z,62.80
2018-12-31T23:03:26.608Z,62.20
2018-12-31T23:05:55.761Z,62.20
2018-12-31T23:08:24.650Z,62.30
2018-12-31T23:10:53.634Z,62.20
2018-12-31T23:13:22.816Z,61.30
2018-12-31T23:15:51.788Z,61.10
2018-12-31T23:18:20.752Z,61.70
2018-12-31T23:20:49.743Z,61.30
2018-12-31T23:23:18.788Z,61.10
2018-12-31T23:25:47.670Z,61.30
2018-12-31T23:28:16.503Z,62.10
2018-12-31T23:30:45.497Z,62.20
2018-12-31T23:33:14.600Z,62.10
2018-12-31T23:35:43.412Z,62.60
2018-12-31T23:38:12.312Z,63.00
2018-12-31T23:40:41.097Z,62.80
2018-12-31T23:43:09.924Z,63.00
2018-12-31T23:45:39.273Z,62.80
2018-12-31T23:48:08.173Z,63.20
2018-12-31T23:50:37.071Z,63.40
2018-12-31T23:53:06.079Z,63.60
2018-12-31T23:55:35.128Z,62.90
2018-12-31T23:58:04.188Z,62.20
